This is the latest recevied weather packets stored in our database for station/object KB1RMA-13. If no packets are shown the sender has not sent any weather packets the latest 10 day(s).
| Time | Temp. | Humidity | Pressure | Rain* | Wind** | Luminosity | Snow |
|---|---|---|---|---|---|---|---|
| 1777865469 | 6.11° C | 59% | 1009.9 hPa | 0 mm | - | 0 W/m² | - |
| 1777865166 | 6.11° C | 60% | 1010.2 hPa | 0 mm | - | 0 W/m² | - |
| 1777864863 | 5.56° C | 61% | 1009.8 hPa | 0 mm | - | 0 W/m² | - |
| 1777864560 | 6.11° C | 60% | 1009.9 hPa | 0 mm | - | 0 W/m² | - |
| 1777864256 | 6.11° C | 59% | 1010 hPa | 0 mm | - | 0 W/m² | - |
| 1777863953 | 6.67° C | 59% | 1009.9 hPa | 0 mm | - | 0 W/m² | - |
| 1777863649 | 6.11° C | 60% | 1009.8 hPa | 0 mm | - | 0 W/m² | - |
| 1777863347 | 6.11° C | 59% | 1009.8 hPa | 0 mm | - | 0 W/m² | - |
| 1777863044 | 6.11° C | 59% | 1009.7 hPa | 0 mm | - | 0 W/m² | - |
| 1777862741 | 6.11° C | 58% | 1009.6 hPa | 0 mm | - | 0 W/m² | - |
| 1777862437 | 6.11° C | 58% | 1009.7 hPa | 0 mm | - | 0 W/m² | - |
| 1777862134 | 6.11° C | 59% | 1009.5 hPa | 0 mm | - | 0 W/m² | - |
| 1777861830 | 5.56° C | 61% | 1009.5 hPa | 0 mm | - | 0 W/m² | - |
| 1777861526 | 5.56° C | 66% | 1009.8 hPa | 0 mm | - | 0 W/m² | - |
| 1777861223 | 5.56° C | 62% | 1009.6 hPa | 0 mm | - | 0 W/m² | - |
| 1777860920 | 6.11° C | 59% | 1009.4 hPa | 0 mm | - | 0 W/m² | - |
| 1777860617 | 5° C | 65% | 1009.6 hPa | 0 mm | - | 0 W/m² | - |
| 1777860314 | 5° C | 66% | 1009.4 hPa | 0 mm | - | 0 W/m² | - |
| 1777860011 | 5° C | 63% | 1009.3 hPa | 0 mm | - | 0 W/m² | - |
| 1777859707 | 5° C | 64% | 1009.2 hPa | 0 mm | - | 0 W/m² | - |
| 1777859403 | 5° C | 64% | 1009.4 hPa | 0 mm | - | 0 W/m² | - |
| 1777859099 | 4.44° C | 69% | 1009.4 hPa | 0 mm | - | 0 W/m² | - |
| 1777858796 | 5° C | 67% | 1009.3 hPa | 0 mm | - | 0 W/m² | - |
| 1777858495 | 5.56° C | 63% | 1009.1 hPa | 0 mm | - | 0 W/m² | - |
| 1777858190 | 5.56° C | 60% | 1009.3 hPa | 0 mm | - | 0 W/m² | - |
* Rain latest hour (hover to see other rain measurements)
** Current wind speed in m/s (hover to see current wind gust speed)